Orense, España

11:49 AM CEST en Agosto 01, 2014 (GMT +0200)
Vigo (LEVX) Alt 840 ft | 42.24 °N, 8.62 °W | Change Station

Current weather conditions updated 19 minutes ago

Scattered Clouds
Nubes dispersas
64 ° F
Sensación térmica 64 ° F
N
2
Viento Variable Viento desde Variable

Hoy se prevé un día Más frío que ayer. Chubascos de madrugada. tonight.

Hoy
Alta -- | Baja -- ° F
--% Posibilidad de precipitaciones
Ayer
Alta -- | Baja -- ° F
Precip. -- pul
7:23 AM 9:51 PM
Creciente, 25% visible
Presión 29.98 pul
Visibilidad 2.8 Millas
Nubes Nubes dispersas 500 ft
Nubes dispersas 900 ft
Punto de rocío 63 ° F
Humedad 94%
Precipitaciones 0.00 pul
Espesor de la nieve No disponible.
UV 5 de una escala de 12
Polen No disponible.
Calidad del aire No disponible.
Flu Activity No disponible.
METAR LEVX 010930Z VRB02KT 4500 BR SCT005 SCT009 18/17 Q1015 BECMG 6000 NSW

More Conditions Fewer Conditions

Presión 29.98 pul
Visibilidad 2.8 Millas
Nubes Nubes dispersas 500 ft
Nubes dispersas 900 ft
Punto de rocío 63 ° F
Humedad 94%
Precipitaciones 0.00 pul
Espesor de la nieve No disponible.
UV 5 de una escala de 12
Polen No disponible.
Calidad del aire No disponible.
Flu Activity No disponible.
METAR LEVX 010930Z VRB02KT 4500 BR SCT005 SCT009 18/17 Q1015 BECMG 6000 NSW

More Conditions Fewer Conditions

10-Day Weather Forecast

Almanac

Astronomía

Aug. 01, 2014 Salida Puesta
Hora real 7:23 AM CEST 9:51 PM CEST
Crepúsculo civil 6:52 AM CEST 10:22 PM CEST
Crepúsculo náutico 6:12 AM CEST 11:02 PM CEST
Crepúsculo astronómico 5:28 AM CEST 11:46 PM CEST
Luna 12:41 PM CEST Sin puesta de luna
Horas de luz 15h 30m
Horas de luz
14h 27m
Tomorrow will be 2m 11s shorter.
Creciente, 25% of the Moon is Illuminated
Hoy
Creciente
Ago 3
Cuarto creciente
Ago 10
Luna llena
Ago 17
Cuarto menguante
Ago 25
Nueva

Extremos de ayer

Máximos del país Bajas del país

Community

WunderPhotos

Upload Photos

1,739,530 ¡fotos cargadas!

Nearby

Calidad del aire

Not available.

Grosos de nieve

Not available.

Actividad de terremotos

Ciudad Distance Mag. Tiempo y dato
No hay informes recientes de la actividad sísmica.
Magnitud mínima muestra es 2,5.

Temperaturas de aguas costeras

Lugar Temperatura
Sin partes meteorológicos de las estaciones

Estaciones meteorológicas cercanas

No hay estaciones meteorológicas personales en esta zona.